Weather at Congonhas Airport

Public forecast

Using degrees Celsius for public forecast. Weather courtesy of forecast.io.

Current aviation weather report (METAR) for Congonhas Airport

Retrieved 2021/01/23 00:00 UTC (59 minutes ago):

SBSP 230000Z 15009KT 9999 BKN012 SCT070 21/18 Q1022

Aviation forecast (TAF) for Congonhas Airport

Retrieved 2021-01-23 00:00 UTC (59 minutes ago):

TAF SBSP 222210Z 2300/2312 15008KT 8000 BKN011 TN20/2305Z TX23/2311Z PROB30 2308/2311 06005KT RMK PGL